createdAt,value
2023-04-06T00:00:03.950Z,59.80
2023-04-06T00:01:03.946Z,57.42
2023-04-06T00:02:03.980Z,57.93
2023-04-06T00:03:04.016Z,58.34
2023-04-06T00:04:03.946Z,58.00
2023-04-06T00:05:03.927Z,58.22
2023-04-06T00:06:03.928Z,58.83
2023-04-06T00:07:03.951Z,58.78
2023-04-06T00:08:03.899Z,43.44
2023-04-06T00:09:03.880Z,49.86
2023-04-06T00:10:03.884Z,41.24
2023-04-06T00:11:03.911Z,40.64
2023-04-06T00:12:03.915Z,44.36
2023-04-06T00:13:03.862Z,41.96
2023-04-06T00:14:03.854Z,43.63
2023-04-06T00:15:03.852Z,46.51
2023-04-06T00:16:03.878Z,41.15
2023-04-06T00:17:03.929Z,41.40
2023-04-06T00:18:03.884Z,46.67
2023-04-06T00:19:03.824Z,41.90
2023-04-06T00:20:03.808Z,46.05
2023-04-06T00:21:03.796Z,46.77
2023-04-06T00:22:03.857Z,48.14
2023-04-06T00:23:03.786Z,48.13
2023-04-06T00:24:03.777Z,42.29
2023-04-06T00:25:03.767Z,48.47
2023-04-06T00:26:04.762Z,49.67
2023-04-06T00:27:03.784Z,42.77
2023-04-06T00:28:03.755Z,48.99
2023-04-06T00:29:03.764Z,54.90
2023-04-06T00:30:03.756Z,55.70
2023-04-06T00:31:03.738Z,55.77
2023-04-06T00:32:03.790Z,56.43
2023-04-06T00:33:03.848Z,57.32
2023-04-06T00:34:03.716Z,56.58
2023-04-06T00:35:03.709Z,57.32
2023-04-06T00:36:03.715Z,57.17
2023-04-06T00:37:03.718Z,56.82
2023-04-06T00:38:03.705Z,56.92
2023-04-06T00:39:03.671Z,59.18
2023-04-06T00:40:03.677Z,57.37
2023-04-06T00:41:03.659Z,57.73
2023-04-06T00:42:03.670Z,57.78
2023-04-06T00:43:04.646Z,58.30
2023-04-06T00:44:03.638Z,52.87
2023-04-06T00:45:03.637Z,40.36
2023-04-06T00:46:03.661Z,39.61
2023-04-06T00:47:03.644Z,48.71
2023-04-06T00:48:03.612Z,46.02
2023-04-06T00:49:03.602Z,45.67
2023-04-06T00:50:03.590Z,51.40
2023-04-06T00:51:03.604Z,49.15
2023-04-06T00:52:03.606Z,48.27
2023-04-06T00:53:03.567Z,48.35
2023-04-06T00:54:03.569Z,55.46
2023-04-06T00:55:03.567Z,56.30
2023-04-06T00:56:03.550Z,56.93
2023-04-06T00:57:03.574Z,56.23
2023-04-06T00:58:03.535Z,55.44
2023-04-06T00:59:03.539Z,56.26
2023-04-06T01:00:03.556Z,56.21
2023-04-06T01:01:03.548Z,49.30
2023-04-06T01:02:03.534Z,40.63
2023-04-06T01:03:03.542Z,42.11
2023-04-06T01:04:03.508Z,42.43
2023-04-06T01:05:03.536Z,43.54
2023-04-06T01:06:03.480Z,45.87
2023-04-06T01:07:03.503Z,40.71
2023-04-06T01:08:03.470Z,40.38
2023-04-06T01:09:03.465Z,46.24
2023-04-06T01:10:03.480Z,54.97
2023-04-06T01:11:03.445Z,56.50
2023-04-06T01:12:03.455Z,57.34
2023-04-06T01:13:03.451Z,57.17
2023-04-06T01:14:03.423Z,58.85
2023-04-06T01:15:03.425Z,58.33
2023-04-06T01:16:03.421Z,59.02
2023-04-06T01:17:03.432Z,59.28
2023-04-06T01:18:03.482Z,59.98
2023-04-06T01:19:03.393Z,60.42
2023-04-06T01:20:03.386Z,60.64
2023-04-06T01:21:03.386Z,60.27
2023-04-06T01:22:03.402Z,60.11
2023-04-06T01:23:03.365Z,59.89
2023-04-06T01:24:03.359Z,60.08
2023-04-06T01:25:03.374Z,43.48
2023-04-06T01:26:03.341Z,48.13
2023-04-06T01:27:03.369Z,47.13
2023-04-06T01:28:03.333Z,56.16
2023-04-06T01:29:03.354Z,43.44
2023-04-06T01:30:03.341Z,48.51
2023-04-06T01:31:03.352Z,45.15
2023-04-06T01:32:03.363Z,50.64
2023-04-06T01:33:03.346Z,47.77
2023-04-06T01:34:03.298Z,50.22
2023-04-06T01:35:03.291Z,53.99
2023-04-06T01:36:03.304Z,55.04
2023-04-06T01:37:03.292Z,57.85
2023-04-06T01:38:03.339Z,56.13
2023-04-06T01:39:03.257Z,56.63
2023-04-06T01:40:03.249Z,55.56
2023-04-06T01:41:03.229Z,56.15
2023-04-06T01:42:03.250Z,57.16
2023-04-06T01:43:03.212Z,47.74
2023-04-06T01:44:03.219Z,49.86
2023-04-06T01:45:03.214Z,40.71
2023-04-06T01:46:03.213Z,46.90
2023-04-06T01:47:03.228Z,58.15
2023-04-06T01:48:03.203Z,44.57
2023-04-06T01:49:03.169Z,45.17
2023-04-06T01:50:03.176Z,48.22
2023-04-06T01:51:03.171Z,44.81
2023-04-06T01:52:03.186Z,41.05
2023-04-06T01:53:03.139Z,49.64
2023-04-06T01:54:03.135Z,50.31
2023-04-06T01:55:03.149Z,54.57
2023-04-06T01:56:03.125Z,56.53
2023-04-06T01:57:03.139Z,57.28
2023-04-06T01:58:03.101Z,57.60
2023-04-06T01:59:03.106Z,57.99
2023-04-06T02:00:03.106Z,59.91
2023-04-06T02:01:03.201Z,60.13
2023-04-06T02:02:03.166Z,61.03
2023-04-06T02:03:03.173Z,60.61
2023-04-06T02:04:03.069Z,60.79
2023-04-06T02:05:03.075Z,60.86
2023-04-06T02:06:03.045Z,61.05
2023-04-06T02:07:03.083Z,60.26
2023-04-06T02:08:03.029Z,60.36
2023-04-06T02:09:03.028Z,59.95
2023-04-06T02:10:03.018Z,60.05
2023-04-06T02:11:03.017Z,59.84
2023-04-06T02:12:03.042Z,59.60
2023-04-06T02:13:03.002Z,59.65
2023-04-06T02:14:02.996Z,59.41
2023-04-06T02:15:02.976Z,59.40
2023-04-06T02:16:03.012Z,59.60
2023-04-06T02:17:03.021Z,59.53
2023-04-06T02:18:03.014Z,59.31
2023-04-06T02:19:02.969Z,59.47
2023-04-06T02:20:02.974Z,59.46
2023-04-06T02:21:02.952Z,59.34
2023-04-06T02:22:02.933Z,59.37
2023-04-06T02:23:02.944Z,59.50
2023-04-06T02:24:02.918Z,63.11
2023-04-06T02:25:02.911Z,59.33
2023-04-06T02:26:02.901Z,59.76
2023-04-06T02:27:02.902Z,52.35
2023-04-06T02:28:02.943Z,58.44
2023-04-06T02:29:02.884Z,49.64
2023-04-06T02:30:02.891Z,48.71
2023-04-06T02:31:02.871Z,52.19
2023-04-06T02:32:02.873Z,48.25
2023-04-06T02:33:02.982Z,56.01
2023-04-06T02:34:02.848Z,48.86
2023-04-06T02:35:02.844Z,49.54
2023-04-06T02:36:02.857Z,48.71
2023-04-06T02:37:02.824Z,45.19
2023-04-06T02:38:02.843Z,45.86
2023-04-06T02:39:02.808Z,49.21
2023-04-06T02:40:02.814Z,44.85
2023-04-06T02:41:02.801Z,42.74
2023-04-06T02:42:02.786Z,45.84
2023-04-06T02:43:02.808Z,48.18
2023-04-06T02:44:02.768Z,45.52
2023-04-06T02:45:02.773Z,50.97
2023-04-06T02:46:02.872Z,46.66
2023-04-06T02:47:02.760Z,58.48
2023-04-06T02:48:02.788Z,47.78
2023-04-06T02:49:02.765Z,47.65
2023-04-06T02:50:02.735Z,49.68
2023-04-06T02:51:02.728Z,48.23
2023-04-06T02:52:02.719Z,45.27
2023-04-06T02:53:02.737Z,47.04
2023-04-06T02:54:02.710Z,47.37
2023-04-06T02:55:02.720Z,50.61
2023-04-06T02:56:02.727Z,46.07
2023-04-06T02:57:02.694Z,51.58
2023-04-06T02:58:02.718Z,42.43
2023-04-06T02:59:02.743Z,51.92
2023-04-06T03:00:02.669Z,46.61
2023-04-06T03:01:02.743Z,45.71
2023-04-06T03:02:02.655Z,57.99
2023-04-06T03:03:02.749Z,44.51
2023-04-06T03:04:02.640Z,52.94
2023-04-06T03:05:02.670Z,50.14
2023-04-06T03:06:02.622Z,48.95
2023-04-06T03:07:02.610Z,45.38
2023-04-06T03:08:02.648Z,49.77
2023-04-06T03:09:02.605Z,49.75
2023-04-06T03:10:02.641Z,47.79
2023-04-06T03:11:03.620Z,45.87
2023-04-06T03:12:02.579Z,48.28
2023-04-06T03:13:02.603Z,46.73
2023-04-06T03:14:03.570Z,54.04
2023-04-06T03:15:02.578Z,51.37
2023-04-06T03:16:02.656Z,51.93
2023-04-06T03:17:02.548Z,52.89
2023-04-06T03:18:02.599Z,51.71
2023-04-06T03:19:02.525Z,49.96
2023-04-06T03:20:02.542Z,51.20
2023-04-06T03:21:02.529Z,51.38
2023-04-06T03:22:02.524Z,58.02
2023-04-06T03:23:02.537Z,48.46
2023-04-06T03:24:02.500Z,55.03
2023-04-06T03:25:03.726Z,55.84
2023-04-06T03:26:03.474Z,56.92
2023-04-06T03:27:02.509Z,52.13
2023-04-06T03:28:02.497Z,53.63
2023-04-06T03:29:02.464Z,55.29
2023-04-06T03:30:02.440Z,55.61
2023-04-06T03:31:02.500Z,52.97
2023-04-06T03:32:02.428Z,53.75
2023-04-06T03:33:02.478Z,55.42
2023-04-06T03:34:02.430Z,54.83
2023-04-06T03:35:02.413Z,55.46
2023-04-06T03:36:02.451Z,56.06
2023-04-06T03:37:09.755Z,54.95
2023-04-06T03:38:04.417Z,55.26
2023-04-06T03:39:02.391Z,59.26
2023-04-06T03:40:02.375Z,58.03
2023-04-06T03:41:02.365Z,54.96
2023-04-06T03:42:02.360Z,49.37
2023-04-06T03:43:02.383Z,54.24
2023-04-06T03:44:02.357Z,56.84
2023-04-06T03:45:02.346Z,52.34
2023-04-06T03:46:02.405Z,56.53
2023-04-06T03:47:02.316Z,53.29
2023-04-06T03:48:02.393Z,51.39
2023-04-06T03:49:02.312Z,57.06
2023-04-06T03:50:02.297Z,54.88
2023-04-06T03:51:02.292Z,53.11
2023-04-06T03:52:02.303Z,50.90
2023-04-06T03:53:02.311Z,54.14
2023-04-06T03:54:02.270Z,53.45
2023-04-06T03:55:02.265Z,60.33
2023-04-06T03:56:04.624Z,56.40
2023-04-06T03:57:03.249Z,52.70
2023-04-06T03:58:02.280Z,55.24
2023-04-06T03:59:02.278Z,55.93
2023-04-06T04:00:02.241Z,53.14
2023-04-06T04:01:02.214Z,53.00
2023-04-06T04:02:02.332Z,54.97
2023-04-06T04:03:02.289Z,57.41
2023-04-06T04:04:02.217Z,52.97
2023-04-06T04:05:02.245Z,56.45
2023-04-06T04:06:02.187Z,53.48
2023-04-06T04:07:02.173Z,52.67
2023-04-06T04:08:02.229Z,56.32
2023-04-06T04:09:02.157Z,53.47
2023-04-06T04:10:02.154Z,50.54
2023-04-06T04:11:02.154Z,56.83
2023-04-06T04:12:02.142Z,59.72
2023-04-06T04:13:02.155Z,53.81
2023-04-06T04:14:02.129Z,56.91
2023-04-06T04:15:02.125Z,54.88
2023-04-06T04:16:02.131Z,57.80
2023-04-06T04:17:02.115Z,61.56
2023-04-06T04:18:02.181Z,53.93
2023-04-06T04:19:02.089Z,58.99
2023-04-06T04:20:02.090Z,58.28
2023-04-06T04:21:02.078Z,53.91
2023-04-06T04:22:02.061Z,51.42
2023-04-06T04:23:02.083Z,57.68
2023-04-06T04:24:02.051Z,57.25
2023-04-06T04:25:02.054Z,58.52
2023-04-06T04:26:02.036Z,54.83
2023-04-06T04:27:02.080Z,54.97
2023-04-06T04:28:02.073Z,56.71
2023-04-06T04:29:02.022Z,56.01
2023-04-06T04:30:02.009Z,56.71
2023-04-06T04:31:02.010Z,61.91
2023-04-06T04:32:02.023Z,56.02
2023-04-06T04:33:02.025Z,53.47
2023-04-06T04:34:02.000Z,55.74
2023-04-06T04:35:01.981Z,56.05
2023-04-06T04:36:02.020Z,57.21
2023-04-06T04:37:01.976Z,59.73
2023-04-06T04:38:02.006Z,56.58
2023-04-06T04:39:01.948Z,56.11
2023-04-06T04:40:01.951Z,56.41
2023-04-06T04:41:01.940Z,58.33
2023-04-06T04:42:01.947Z,57.45
2023-04-06T04:43:33.873Z,55.26
2023-04-06T04:44:01.924Z,53.27
2023-04-06T04:45:01.911Z,56.64
2023-04-06T04:46:01.973Z,53.04
2023-04-06T04:47:01.892Z,58.34
2023-04-06T04:48:02.037Z,56.09
2023-04-06T04:49:01.898Z,57.27
2023-04-06T04:50:01.901Z,57.10
2023-04-06T04:51:01.882Z,58.66
2023-04-06T04:52:01.867Z,54.92
2023-04-06T04:53:01.932Z,57.30
2023-04-06T04:54:01.867Z,60.79
2023-04-06T04:55:01.840Z,61.68
2023-04-06T04:56:01.831Z,60.18
2023-04-06T04:57:01.829Z,62.19
2023-04-06T04:58:01.851Z,62.40
2023-04-06T04:59:01.878Z,60.59
2023-04-06T05:00:01.816Z,60.66
2023-04-06T05:01:01.863Z,61.44
2023-04-06T05:02:01.916Z,60.87
2023-04-06T05:03:01.875Z,64.53
2023-04-06T05:04:01.777Z,61.50
2023-04-06T05:05:01.805Z,61.23
2023-04-06T05:06:01.764Z,61.66
2023-04-06T05:07:01.762Z,63.36
2023-04-06T05:08:01.780Z,62.29
2023-04-06T05:09:01.740Z,56.58
2023-04-06T05:10:01.737Z,57.15
2023-04-06T05:11:01.730Z,56.44
2023-04-06T05:12:01.728Z,52.61
2023-04-06T05:13:01.774Z,59.08
2023-04-06T05:14:01.889Z,61.16
2023-04-06T05:15:01.702Z,60.44
2023-04-06T05:16:01.765Z,60.99
2023-04-06T05:17:01.703Z,61.73
2023-04-06T05:18:01.762Z,63.06
2023-04-06T05:19:01.678Z,62.29
2023-04-06T05:20:01.685Z,63.63
2023-04-06T05:21:01.670Z,61.58
2023-04-06T05:22:01.699Z,60.99
2023-04-06T05:23:01.674Z,61.46
2023-04-06T05:24:01.688Z,60.38
2023-04-06T05:25:01.632Z,62.07
2023-04-06T05:26:01.627Z,61.08
2023-04-06T05:27:01.609Z,60.48
2023-04-06T05:28:01.642Z,60.72
2023-04-06T05:29:01.612Z,61.15
2023-04-06T05:30:01.605Z,61.21
2023-04-06T05:31:01.622Z,60.82
2023-04-06T05:32:01.586Z,61.19
2023-04-06T05:33:01.680Z,63.54
2023-04-06T05:34:01.580Z,60.82
2023-04-06T05:35:01.564Z,60.80
2023-04-06T05:36:01.653Z,60.50
2023-04-06T05:37:01.539Z,61.21
2023-04-06T05:38:01.627Z,61.30
2023-04-06T05:39:01.549Z,56.18
2023-04-06T05:40:01.531Z,57.11
2023-04-06T05:41:01.507Z,57.41
2023-04-06T05:42:01.509Z,60.79
2023-04-06T05:43:01.526Z,55.69
2023-04-06T05:44:01.488Z,56.68
2023-04-06T05:45:01.486Z,58.42
2023-04-06T05:46:01.535Z,54.57
2023-04-06T05:47:01.500Z,56.45
2023-04-06T05:48:01.515Z,59.53
2023-04-06T05:49:01.518Z,55.65
2023-04-06T05:50:01.448Z,56.55
2023-04-06T05:51:01.424Z,57.08
2023-04-06T05:52:02.492Z,58.57
2023-04-06T05:53:01.416Z,56.16
2023-04-06T05:54:01.433Z,57.38
2023-04-06T05:55:01.433Z,52.06
2023-04-06T05:56:01.384Z,56.70
2023-04-06T05:57:01.431Z,59.52
2023-04-06T05:58:01.397Z,57.07
2023-04-06T05:59:01.509Z,54.71
2023-04-06T06:00:01.354Z,57.13
2023-04-06T06:01:01.366Z,56.03
2023-04-06T06:02:01.370Z,55.45
2023-04-06T06:03:01.527Z,56.26
2023-04-06T06:04:01.357Z,52.12
2023-04-06T06:05:01.385Z,61.36
2023-04-06T06:06:01.324Z,51.05
2023-04-06T06:07:01.305Z,53.63
2023-04-06T06:08:01.299Z,58.07
2023-04-06T06:09:01.328Z,55.40
2023-04-06T06:10:01.298Z,56.95
2023-04-06T06:11:01.271Z,58.96
2023-04-06T06:12:01.263Z,55.51
2023-04-06T06:13:01.262Z,60.45
2023-04-06T06:14:01.301Z,54.43
2023-04-06T06:15:01.251Z,61.00
2023-04-06T06:16:01.248Z,54.94
2023-04-06T06:17:01.228Z,57.73
2023-04-06T06:18:01.381Z,52.62
2023-04-06T06:19:01.302Z,54.71
2023-04-06T06:20:01.232Z,59.22
2023-04-06T06:21:01.206Z,55.44
2023-04-06T06:22:01.199Z,56.60
2023-04-06T06:23:01.217Z,57.97
2023-04-06T06:24:01.207Z,53.90
2023-04-06T06:25:01.167Z,56.22
2023-04-06T06:26:01.156Z,54.56
2023-04-06T06:27:01.187Z,55.65
2023-04-06T06:28:01.143Z,56.21
2023-04-06T06:29:01.254Z,55.62
2023-04-06T06:30:01.131Z,53.69
2023-04-06T06:31:01.136Z,55.37
2023-04-06T06:32:01.287Z,55.20
2023-04-06T06:33:01.178Z,54.82
2023-04-06T06:34:01.162Z,57.07
2023-04-06T06:35:01.199Z,56.01
2023-04-06T06:36:01.140Z,54.42
2023-04-06T06:37:01.090Z,56.85
2023-04-06T06:38:01.090Z,54.66
2023-04-06T06:39:01.091Z,51.75
2023-04-06T06:40:01.052Z,58.76
2023-04-06T06:41:01.080Z,56.67
2023-04-06T06:42:01.039Z,57.68
2023-04-06T06:43:01.041Z,56.15
2023-04-06T06:44:01.278Z,55.37
2023-04-06T06:45:01.009Z,57.58
2023-04-06T06:46:01.034Z,58.77
2023-04-06T06:47:01.013Z,56.15
2023-04-06T06:48:01.050Z,54.87
2023-04-06T06:49:01.014Z,55.89
2023-04-06T06:50:01.026Z,57.29
2023-04-06T06:51:00.992Z,54.66
2023-04-06T06:52:01.003Z,62.11
2023-04-06T06:53:00.967Z,56.29
2023-04-06T06:54:00.979Z,53.75
2023-04-06T06:55:01.063Z,57.70
2023-04-06T06:56:00.958Z,56.35
2023-04-06T06:57:00.928Z,55.45
2023-04-06T06:58:01.209Z,58.94
2023-04-06T06:59:00.962Z,57.38
2023-04-06T07:00:01.023Z,56.02
2023-04-06T07:01:01.071Z,57.39
2023-04-06T07:02:00.916Z,52.30
2023-04-06T07:03:01.016Z,55.75
2023-04-06T07:04:01.000Z,57.17
2023-04-06T07:05:00.941Z,53.26
2023-04-06T07:06:00.882Z,56.73
2023-04-06T07:07:00.883Z,59.71
2023-04-06T07:08:01.018Z,54.12
2023-04-06T07:09:00.860Z,55.44
2023-04-06T07:10:00.868Z,56.05
2023-04-06T07:11:00.834Z,56.44
2023-04-06T07:12:00.893Z,55.00
2023-04-06T07:13:00.821Z,54.43
2023-04-06T07:14:00.808Z,59.08
2023-04-06T07:15:00.825Z,60.13
2023-04-06T07:16:00.820Z,57.07
2023-04-06T07:17:00.842Z,55.81
2023-04-06T07:18:00.816Z,57.41
2023-04-06T07:19:00.986Z,52.43
2023-04-06T07:20:00.789Z,56.71
2023-04-06T07:21:00.816Z,54.41
2023-04-06T07:22:00.741Z,56.15
2023-04-06T07:23:00.828Z,56.37
2023-04-06T07:24:00.744Z,56.79
2023-04-06T07:25:00.767Z,57.80
2023-04-06T07:26:00.731Z,57.24
2023-04-06T07:27:00.753Z,57.05
2023-04-06T07:28:00.704Z,60.22
2023-04-06T07:29:00.680Z,57.61
2023-04-06T07:30:00.841Z,55.46
2023-04-06T07:31:00.672Z,60.86
2023-04-06T07:32:00.675Z,52.64
2023-04-06T07:33:00.748Z,54.46
2023-04-06T07:34:00.658Z,57.57
2023-04-06T07:35:00.721Z,58.53
2023-04-06T07:36:00.685Z,55.36
2023-04-06T07:37:01.801Z,57.71
2023-04-06T07:38:00.616Z,60.05
2023-04-06T07:39:00.618Z,56.97
2023-04-06T07:40:00.647Z,62.51
2023-04-06T07:41:00.601Z,61.56
2023-04-06T07:42:00.617Z,57.90
2023-04-06T07:43:00.587Z,62.21
2023-04-06T07:44:00.678Z,57.52
2023-04-06T07:45:00.604Z,58.88
2023-04-06T07:46:00.608Z,58.87
2023-04-06T07:47:00.549Z,56.06
2023-04-06T07:48:00.605Z,58.34
2023-04-06T07:49:00.541Z,54.27
2023-04-06T07:50:00.563Z,57.02
2023-04-06T07:51:00.525Z,56.92
2023-04-06T07:52:00.575Z,57.79
2023-04-06T07:53:00.508Z,51.72
2023-04-06T07:54:00.503Z,55.95
2023-04-06T07:55:00.522Z,58.32
2023-04-06T07:56:00.488Z,53.57
2023-04-06T07:57:00.478Z,56.70
2023-04-06T07:58:00.490Z,57.83
2023-04-06T07:59:00.505Z,58.81
2023-04-06T08:00:00.506Z,55.56
2023-04-06T08:01:00.451Z,55.25
2023-04-06T08:02:00.467Z,53.48
2023-04-06T08:03:00.524Z,56.47
2023-04-06T08:04:00.598Z,55.89
2023-04-06T08:05:21.120Z,54.18
2023-04-06T08:06:01.417Z,59.18
2023-04-06T08:07:00.434Z,56.62
2023-04-06T08:08:00.410Z,54.21
2023-04-06T08:09:00.396Z,56.40
2023-04-06T08:10:00.428Z,58.40
2023-04-06T08:11:02.009Z,56.54
2023-04-06T08:12:01.471Z,54.76
2023-04-06T08:13:00.372Z,58.09
2023-04-06T08:14:00.356Z,55.52
2023-04-06T08:15:00.379Z,55.75
2023-04-06T08:16:00.370Z,55.66
2023-04-06T08:17:00.326Z,53.88
2023-04-06T08:18:00.357Z,54.36
2023-04-06T08:19:00.317Z,56.48
2023-04-06T08:20:00.326Z,55.26
2023-04-06T08:21:00.353Z,56.89
2023-04-06T08:22:00.297Z,57.33
2023-04-06T08:23:00.276Z,53.94
2023-04-06T08:24:00.270Z,56.07
2023-04-06T08:25:00.288Z,57.82
2023-04-06T08:26:00.257Z,56.16
2023-04-06T08:27:00.240Z,56.62
2023-04-06T08:28:00.322Z,52.45
2023-04-06T08:29:00.276Z,55.12
2023-04-06T08:30:00.275Z,57.11
2023-04-06T08:31:00.239Z,54.68
2023-04-06T08:32:00.212Z,56.43
2023-04-06T08:33:00.329Z,59.33
2023-04-06T08:34:00.198Z,52.52
2023-04-06T08:35:00.215Z,56.61
2023-04-06T08:36:00.200Z,57.23
2023-04-06T08:37:00.170Z,53.47
2023-04-06T08:38:00.278Z,54.62
2023-04-06T08:39:00.168Z,61.02
2023-04-06T08:40:00.209Z,60.38
2023-04-06T08:41:00.169Z,55.44
2023-04-06T08:42:00.144Z,54.99
2023-04-06T08:43:00.182Z,60.15
2023-04-06T08:44:00.116Z,57.39
2023-04-06T08:45:00.182Z,51.07
2023-04-06T08:46:00.164Z,54.65
2023-04-06T08:47:00.116Z,55.21
2023-04-06T08:48:00.258Z,57.75
2023-04-06T08:49:00.097Z,57.09
2023-04-06T08:50:00.195Z,56.99
2023-04-06T08:51:00.090Z,56.94
2023-04-06T08:52:00.123Z,59.27
2023-04-06T08:53:00.068Z,56.55
2023-04-06T08:54:00.102Z,55.29
2023-04-06T08:55:00.062Z,55.40
2023-04-06T08:56:00.715Z,58.20
2023-04-06T08:57:00.024Z,57.74
2023-04-06T08:58:00.019Z,58.78
2023-04-06T08:59:00.063Z,59.30
2023-04-06T08:59:59.998Z,59.57
2023-04-06T09:01:00.025Z,58.26
2023-04-06T09:02:00.003Z,57.43
2023-04-06T09:03:00.147Z,57.43
2023-04-06T09:04:00.093Z,57.85
2023-04-06T09:05:00.020Z,58.71
2023-04-06T09:06:00.030Z,58.12
2023-04-06T09:06:59.973Z,58.84
2023-04-06T09:08:00.934Z,57.99
2023-04-06T09:08:59.931Z,59.50
2023-04-06T09:09:59.929Z,56.51
2023-04-06T09:10:59.941Z,51.88
2023-04-06T09:11:59.904Z,56.31
2023-04-06T09:12:59.903Z,58.19
2023-04-06T09:13:59.900Z,60.66
2023-04-06T09:14:59.917Z,58.60
2023-04-06T09:15:59.952Z,53.73
2023-04-06T09:16:59.880Z,55.25
2023-04-06T09:17:59.942Z,55.11
2023-04-06T09:18:59.851Z,53.05
2023-04-06T09:19:59.909Z,58.39
2023-04-06T09:20:59.866Z,56.62
2023-04-06T09:21:59.832Z,57.42
2023-04-06T09:22:59.863Z,54.60
2023-04-06T09:23:59.988Z,54.77
2023-04-06T09:24:59.812Z,54.69
2023-04-06T09:25:59.837Z,55.39
2023-04-06T09:26:59.835Z,52.54
2023-04-06T09:27:59.787Z,53.35
2023-04-06T09:28:59.772Z,54.02
2023-04-06T09:30:00.771Z,54.33
2023-04-06T09:30:59.802Z,50.47
2023-04-06T09:31:59.868Z,59.36
2023-04-06T09:32:59.818Z,55.65
2023-04-06T09:33:59.768Z,55.03
2023-04-06T09:34:59.740Z,55.38
2023-04-06T09:35:59.804Z,54.01
2023-04-06T09:36:59.725Z,55.62
2023-04-06T09:37:59.727Z,46.49
2023-04-06T09:38:59.702Z,54.48
2023-04-06T09:39:59.707Z,54.36
2023-04-06T09:41:01.226Z,56.32
2023-04-06T09:42:00.757Z,59.32
2023-04-06T09:42:59.719Z,55.85
2023-04-06T09:43:59.664Z,55.06
2023-04-06T09:44:59.666Z,55.12
2023-04-06T09:45:59.720Z,58.12
2023-04-06T09:47:01.146Z,53.05
2023-04-06T09:48:00.772Z,57.87
2023-04-06T09:48:59.629Z,58.49
2023-04-06T09:49:59.634Z,54.87
2023-04-06T09:50:59.639Z,55.28
2023-04-06T09:51:59.619Z,55.16
2023-04-06T09:52:59.602Z,55.93
2023-04-06T09:53:59.597Z,53.32
2023-04-06T09:54:59.581Z,54.11
2023-04-06T09:55:59.601Z,59.09
2023-04-06T09:56:59.620Z,53.76
2023-04-06T09:57:59.597Z,51.16
2023-04-06T09:58:59.584Z,54.09
2023-04-06T09:59:59.546Z,53.58
2023-04-06T10:00:59.697Z,53.01
2023-04-06T10:01:59.527Z,55.62
2023-04-06T10:02:59.573Z,51.44
2023-04-06T10:03:59.718Z,56.84
2023-04-06T10:04:59.514Z,52.36
2023-04-06T10:05:59.607Z,57.97
2023-04-06T10:06:59.492Z,54.55
2023-04-06T10:08:01.129Z,58.88
2023-04-06T10:09:00.485Z,53.74
2023-04-06T10:09:59.503Z,57.76
2023-04-06T10:10:59.484Z,55.26
2023-04-06T10:11:59.447Z,56.48
2023-04-06T10:12:59.434Z,56.78
2023-04-06T10:14:00.442Z,54.56
2023-04-06T10:14:59.419Z,55.10
2023-04-06T10:15:59.503Z,54.48
2023-04-06T10:16:59.410Z,55.28
2023-04-06T10:17:59.420Z,55.39
2023-04-06T10:18:59.385Z,53.69
2023-04-06T10:19:59.384Z,54.53
2023-04-06T10:20:59.377Z,53.72
2023-04-06T10:21:59.399Z,52.99
2023-04-06T10:22:59.360Z,52.64
2023-04-06T10:23:59.354Z,55.26
2023-04-06T10:24:59.351Z,54.79
2023-04-06T10:25:59.333Z,54.50
2023-04-06T10:26:59.348Z,53.90
2023-04-06T10:27:59.323Z,54.95
2023-04-06T10:28:59.329Z,55.54
2023-04-06T10:29:59.314Z,55.49
2023-04-06T10:30:59.321Z,53.10
2023-04-06T10:31:59.376Z,58.19
2023-04-06T10:32:59.476Z,56.13
2023-04-06T10:33:59.280Z,55.18
2023-04-06T10:34:59.282Z,55.32
2023-04-06T10:35:59.334Z,55.16
2023-04-06T10:36:59.286Z,56.98
2023-04-06T10:37:59.245Z,54.19
2023-04-06T10:38:59.373Z,53.54
2023-04-06T10:39:59.276Z,56.66
2023-04-06T10:40:59.229Z,56.04
2023-04-06T10:41:59.259Z,54.64
2023-04-06T10:43:31.678Z,53.58
2023-04-06T10:43:59.209Z,55.68
2023-04-06T10:44:59.197Z,53.10
2023-04-06T10:45:59.270Z,51.10
2023-04-06T10:46:59.302Z,51.75
2023-04-06T10:47:59.250Z,55.02
2023-04-06T10:48:59.170Z,54.98
2023-04-06T10:49:59.160Z,56.91
2023-04-06T10:50:59.155Z,53.31
2023-04-06T10:51:59.341Z,50.72
2023-04-06T10:52:59.135Z,58.82
2023-04-06T10:53:59.125Z,53.62
2023-04-06T10:54:59.142Z,50.82
2023-04-06T10:55:59.117Z,50.63
2023-04-06T10:56:59.132Z,55.09
2023-04-06T10:57:59.099Z,54.18
2023-04-06T10:58:59.125Z,53.42
2023-04-06T10:59:59.088Z,57.56
2023-04-06T11:00:59.108Z,53.56
2023-04-06T11:01:59.094Z,56.24
2023-04-06T11:02:59.083Z,57.72
2023-04-06T11:03:59.148Z,55.36
2023-04-06T11:04:59.061Z,52.71
2023-04-06T11:05:59.027Z,55.67
2023-04-06T11:06:59.063Z,51.57
2023-04-06T11:07:59.024Z,53.89
2023-04-06T11:08:59.005Z,57.01
2023-04-06T11:10:14.007Z,53.38
2023-04-06T11:11:01.014Z,54.74
2023-04-06T11:11:59.055Z,55.90
2023-04-06T11:12:58.980Z,56.56
2023-04-06T11:13:58.966Z,54.09
2023-04-06T11:14:58.966Z,55.35
2023-04-06T11:15:58.951Z,56.36
2023-04-06T11:16:59.057Z,57.48
2023-04-06T11:17:59.014Z,55.20
2023-04-06T11:18:58.939Z,57.04
2023-04-06T11:19:58.923Z,57.65
2023-04-06T11:20:58.918Z,58.87
2023-04-06T11:21:59.928Z,58.10
2023-04-06T11:22:59.910Z,56.08
2023-04-06T11:23:58.898Z,59.64
2023-04-06T11:24:58.886Z,52.99
2023-04-06T11:25:58.885Z,53.60
2023-04-06T11:26:58.933Z,53.39
2023-04-06T11:27:58.885Z,56.39
2023-04-06T11:28:58.856Z,52.96
2023-04-06T11:29:58.864Z,55.01
2023-04-06T11:30:59.979Z,58.16
2023-04-06T11:31:58.837Z,54.17
2023-04-06T11:32:58.874Z,54.85
2023-04-06T11:33:58.821Z,54.38
2023-04-06T11:34:58.805Z,54.39
2023-04-06T11:35:58.873Z,56.70
2023-04-06T11:36:58.799Z,53.10
2023-04-06T11:38:00.456Z,52.71
2023-04-06T11:38:59.783Z,55.20
2023-04-06T11:39:58.798Z,56.50
2023-04-06T11:40:58.756Z,55.67
2023-04-06T11:41:58.751Z,56.80
2023-04-06T11:42:58.775Z,53.99
2023-04-06T11:43:58.741Z,57.99
2023-04-06T11:44:58.733Z,57.23
2023-04-06T11:45:58.729Z,53.10
2023-04-06T11:46:58.710Z,57.32
2023-04-06T11:47:58.769Z,55.20
2023-04-06T11:48:58.771Z,54.19
2023-04-06T11:49:58.693Z,49.35
2023-04-06T11:50:58.690Z,54.88
2023-04-06T11:51:58.717Z,57.27
2023-04-06T11:52:58.688Z,57.34
2023-04-06T11:53:59.730Z,53.60
2023-04-06T11:54:58.666Z,55.16
2023-04-06T11:55:58.673Z,57.04
2023-04-06T11:56:58.673Z,55.57
2023-04-06T11:57:58.636Z,53.85
2023-04-06T11:58:58.732Z,49.54
2023-04-06T11:59:58.619Z,55.04
2023-04-06T12:00:58.608Z,54.64
2023-04-06T12:01:58.611Z,51.87
2023-04-06T12:02:58.660Z,54.52
2023-04-06T12:03:58.668Z,56.16
2023-04-06T12:04:58.592Z,53.91
2023-04-06T12:05:59.437Z,52.31
2023-04-06T12:06:59.558Z,55.54
2023-04-06T12:08:00.126Z,54.08
2023-04-06T12:08:58.616Z,56.27
2023-04-06T12:09:58.537Z,55.45
2023-04-06T12:10:58.534Z,53.52
2023-04-06T12:11:58.512Z,56.36
2023-04-06T12:12:58.508Z,54.97
2023-04-06T12:13:58.533Z,53.87
2023-04-06T12:14:58.491Z,53.93
2023-04-06T12:15:58.543Z,54.77
2023-04-06T12:16:58.484Z,58.03
2023-04-06T12:17:58.496Z,56.60
2023-04-06T12:18:58.554Z,49.09
2023-04-06T12:20:05.149Z,56.77
2023-04-06T12:21:00.445Z,51.45
2023-04-06T12:21:58.453Z,52.69
2023-04-06T12:22:58.565Z,55.82
2023-04-06T12:23:58.453Z,53.87
2023-04-06T12:24:58.422Z,52.80
2023-04-06T12:25:58.409Z,53.01
2023-04-06T12:27:08.698Z,55.74
2023-04-06T12:28:00.400Z,55.90
2023-04-06T12:28:58.432Z,59.92
2023-04-06T12:29:58.380Z,51.60
2023-04-06T12:30:58.389Z,53.26
2023-04-06T12:31:58.466Z,54.91
2023-04-06T12:32:58.439Z,57.39
2023-04-06T12:33:58.381Z,55.28
2023-04-06T12:34:58.343Z,56.57
2023-04-06T12:35:58.381Z,55.86
2023-04-06T12:36:58.458Z,55.51
2023-04-06T12:37:58.318Z,57.49
2023-04-06T12:38:58.340Z,54.85
2023-04-06T12:39:58.307Z,55.20
2023-04-06T12:40:58.292Z,54.36
2023-04-06T12:41:58.296Z,54.96
2023-04-06T12:42:58.281Z,56.63
2023-04-06T12:43:58.303Z,55.58
2023-04-06T12:44:58.269Z,56.24
2023-04-06T12:45:58.267Z,55.73
2023-04-06T12:46:58.299Z,56.03
2023-04-06T12:47:58.288Z,56.45
2023-04-06T12:48:58.257Z,55.99
2023-04-06T12:49:58.229Z,54.91
2023-04-06T12:50:58.225Z,56.65
2023-04-06T12:51:58.210Z,56.08